ADDS METAR Data INFO
IDs: Format: Raw Decoded Include TAF

Data at: 0934 UTC 25 Feb 2018

KTRL 250853Z AUTO 05005KT 10SM CLR 08/06 A3001 RMK AO2 SLP162 T00830061 58004
KTRL 250753Z AUTO 02007KT 10SM CLR 08/07 A3001 RMK AO2 SLP161 T00830067
KTRL 250724Z AUTO 01004KT 3SM BR CLR 07/07 A3003 RMK AO2 T00720067
KTRL 250653Z AUTO 00000KT 1 3/4SM BR CLR 08/07 A3003 RMK AO2 VIS 3/4V4 SLP168 T00780072
KTRL 250647Z AUTO 00000KT 1 3/4SM BR CLR 08/08 A3003 RMK AO2 VIS 3/4V5
KTRL 250553Z AUTO 00000KT 10SM CLR 09/08 A3003 RMK AO2 SLP165 T00940083 10156 20094 402110094 53020
KTRL 250453Z AUTO 01003KT 10SM BKN075 10/09 A3000 RMK AO2 SLP156 T01000089
KTRL 250353Z AUTO 00000KT 10SM SCT075 10/09 A2998 RMK AO2 SLP150 T01000089
KTRL 250253Z AUTO 00000KT 10SM SCT065 11/09 A2997 RMK AO2 SLP144 T01110094 51022
KTRL 250153Z AUTO 00000KT 10SM CLR 12/10 A2995 RMK AO2 SLP139 T01170100
KTRL 250053Z AUTO 00000KT 10SM CLR 13/10 A2993 RMK AO2 SLP132 T01330100
KTRL 242353Z AUTO 34005KT 10SM SCT110 16/10 A2990 RMK AO2 SLP122 60040 T01560100 10211 20106 53014
KTRL 242253Z AUTO 33007KT 10SM BKN100 16/10 A2988 RMK AO2 SLP114 T01560100
KTRL 242153Z AUTO 32009KT 10SM FEW060 BKN100 14/11 A2986 RMK AO2 RAE2059 SLP107 P0000 T01440111
KTRL 242053Z AUTO 32005KT 10SM -RA FEW034 BKN060 OVC100 12/09 A2986 RMK AO2 SLP109 P0009 60040 T01170094 51015
KTRL 242021Z AUTO 30008KT 5SM -RA BR SCT023 BKN031 OVC065 11/09 A2986 RMK AO2 P0006 T01110094
KTRL 242017Z AUTO 32008KT 2 1/2SM -RA BR BKN023 BKN033 OVC065 11/09 A2985 RMK AO2 P0006 T01060094
KTRL 241953Z AUTO 32010G16KT 7SM -RA FEW016 OVC021 12/09 A2985 RMK AO2 PK WND 31026/1909 SLP108 P0022 T01170094
KTRL 241938Z AUTO 31012G20KT 3SM RA BR SCT007 BKN016 OVC021 12/10 A2986 RMK AO2 PK WND 31026/1909 P0020 T01170100
KTRL 241917Z AUTO 30011G26KT 3SM RA BR BKN008 BKN017 OVC047 12/11 A2986 RMK AO2 PK WND 31026/1909 LTG DSNT NE AND E P0015 T01220106
KTRL 241908Z AUTO 30017G23KT 2SM RA BR SCT008 BKN019 OVC047 12/11 A2985 RMK AO2 LTG DSNT E-SW P0010 T01220106
KTRL 241858Z AUTO 31012G22KT 1 3/4SM +RA BR BKN006 BKN010 OVC014 12/11 A2986 RMK AO2 VIS 1 1/4V5 LTG DSNT N AND E AND SW P0004 T01220111
KTRL 241853Z AUTO 30017G26KT 3SM -RA BR BKN006 BKN013 OVC025 13/11 A2985 RMK AO2 PK WND 30026/1847 WSHFT 1822 LTG DSNT N-SE RAE27B52 TSE1754 SLP108 P0009 T01280111
KTRL 241845Z AUTO 31018G26KT 10SM BKN006 OVC011 14/12 A2985 RMK AO2 PK WND 29026/1831 WSHFT 1822 LTG DSNT N-SE RAE27 TSE1754 P0007 T01390122
KTRL 241836Z AUTO 30014G26KT 10SM VCTS BKN008 BKN012 OVC050 16/14 A2983 RMK AO2 PK WND 29026/1831 WSHFT 1822 LTG DSNT N AND E RAE27 TSE1754 CIG 005V009 P0007 T01560139
KTRL 241818Z AUTO 21015KT 6SM VCTS -RA BR BKN010 OVC015 21/19 A2981 RMK AO2 LTG DSNT N-E TSE1754 P0007 T02060189
KTRL 241807Z AUTO 21014G23KT 2SM VCTS RA BR BKN010 BKN015 OVC022 21/19 A2982 RMK AO2 VIS 1 1/4V5 TSE1754 P0006 T02060189
KTRL 241800Z AUTO 20015G23KT 3SM VCTS RA BR BKN010 BKN015 OVC022 21/19 A2982 RMK AO2 LTG DSNT NE AND S AND W TSE1754 CIG 008V011 P0002 T02060189
KTRL 241753Z AUTO 20015G22KT 5SM TSRA BR BKN010 OVC015 21/19 A2982 RMK AO2 LTG DSNT ALQDS RAB46 TSB29 CIG 008V013 SLP093 P0001 60021 T02060189 10206 20111 56007
KTRL 241735Z AUTO 19015KT 10SM TS OVC011 21/18 A2981 RMK AO2 LTG DSNT ALQDS TSB29 T02060183
KTRL 241724Z AUTO 18015G21KT 10SM VCTS BKN011 OVC015 21/19 A2981 RMK AO2 LTG DSNT S-NW CIG 007V012 T02060189
KTRL 241708Z AUTO 19017G23KT 9SM OVC011 21/19 A2982 RMK AO2 LTG DSNT SW-NW T02060189
KTRL 241653Z AUTO 18012G20KT 8SM BKN009 BKN015 OVC026 20/18 A2982 RMK AO2 PK WND 15033/1615 LTG DSNT W AND NW RAB02E30 SLP095 P0000 T02000183
KTRL 241651Z AUTO 18014KT 8SM BKN009 BKN015 OVC026 20/18 A2982 RMK AO2 PK WND 15033/1615 LTG DSNT W AND NW RAB02E30 P0000
KTRL 241640Z AUTO 19013G21KT 8SM BKN010 BKN026 BKN095 20/18 A2983 RMK AO2 PK WND 15033/1615 LTG DSNT SW AND NW RAB02E30 P0000 T02000183
KTRL 241627Z AUTO 18015G24KT 8SM -RA FEW006 BKN026 OVC110 20/19 A2981 RMK AO2 PK WND 15033/1615 LTG DSNT S AND SW RAB02 P0000 T02000189
KTRL 241610Z AUTO 16022G29KT 6SM -RA BR SCT008 BKN032 OVC110 19/18 A2979 RMK AO2 PK WND 16029/1607 RAB02 PRESFR P0000 T01940183
KTRL 241603Z AUTO 17019G25KT 7SM -RA BKN006 BKN015 OVC029 19/18 A2983 RMK AO2 RAB02 P0000 T01940183
KTRL 241556Z AUTO 18019G22KT 9SM SCT006 BKN013 OVC065 19/18 A2984 RMK AO2 T01940183
KTRL 241553Z AUTO 18014G23KT 9SM SCT012 BKN029 BKN070 19/18 A2984 RMK AO2 PK WND 15031/1501 RAE53 TSE05 PRESRR SLP100 P0007 T01940183
KTRL 241549Z AUTO 18016G25KT 9SM -RA SCT014 BKN029 BKN050 19/18 A2983 RMK AO2 PK WND 15031/1501 LTG DSNT NE TSE05 P0007
KTRL 241531Z AUTO 17021G29KT 10SM -RA FEW003 BKN049 BKN090 19/18 A2981 RMK AO2 PK WND 15031/1501 LTG DSNT NE AND E TSE05 P0007 T01890183
KTRL 241524Z AUTO 16019G27KT 8SM VCTS -RA FEW003 BKN049 OVC110 19/18 A2980 RMK AO2 PK WND 15031/1501 LTG DSNT NE AND E TSE05 P0007 T01890178
KTRL 241515Z AUTO 16016G22KT 4SM VCTS -RA BR BKN003 BKN049 OVC110 18/18 A2983 RMK AO2 PK WND 15031/1501 LTG DSNT NE AND E TSE05 P0007 T01830178
KTRL 241511Z AUTO 15014G29KT 2SM VCTS -RA BR SCT003 BKN049 OVC110 18/18 A2982 RMK AO2 PK WND 15031/1501 LTG DSNT E TSE05 P0007 T01830178
KTRL 241500Z AUTO 15024G29KT 1 3/4SM TSRA BR BKN004 OVC046 18/17 A2981 RMK AO2 PK WND 15029/1459 LTG DSNT SW PRESFR P0004 T01830172
KTRL 241453Z AUTO 16015KT 2 1/2SM TSRA BR BKN003 OVC046 18/17 A2985 RMK AO2 LTG DSNT SW RAB1359 TSB40 SLP103 P0012 60013 T01830172 58005
KTRL 241448Z AUTO 17012KT 2 1/2SM TSRA BR OVC003 18/17 A2986 RMK AO2 LTG DSNT N AND SW RAB1359 TSB40 P0011
KTRL 241440Z AUTO 18014KT 3SM TSRA BR OVC003 18/17 A2987 RMK AO2 LTG DSNT N AND SW RAB1359 TSB40 P0008 T01780172
KTRL 241433Z AUTO 17013KT 4SM -RA BR OVC003 18/17 A2987 RMK AO2 LTG DSNT N AND SW RAB1359 P0006 T01780172
KTRL 241416Z AUTO 17009KT 2SM RA BR OVC003 17/17 A2987 RMK AO2 LTG DSNT N AND NW RAB1359 P0004 T01720167
KTRL 241353Z AUTO 18006KT 1/4SM FG VV002 16/15 A2986 RMK AO2 LTG DSNT W-N RAE48 PRESRR SLP109 P0001 T01560150
KTRL 241253Z AUTO 07006KT 1/2SM -RA FG VV002 12/11 A2986 RMK AO2 RAB1154 PRESFR SLP109 P0000 T01170106
KTRL 241153Z AUTO 03005KT 1/2SM FG VV002 11/11 A2992 RMK AO2 LTG DSNT NW SLP131 60000 T01110106 10117 20106 55015
KTRL 241053Z AUTO 06006KT 1/2SM FG VV003 11/11 A2991 RMK AO2 SLP126 T01110106
KTRL 241002Z AUTO 00000KT 3/4SM BR VV003 11/10 A2994 RMK AO2 T01060100
KTRL 240956Z AUTO 00000KT 1SM BR VV004 11/10 A2994 RMK AO2 T01060100
KTRL 240953Z AUTO 00000KT 3/4SM BR VV003 11/10 A2994 RMK AO2 RAB00E36 SLP137 P0000 T01060100
KTRL 240853Z AUTO 35003KT 3/4SM BR VV003 11/10 A2997 RMK AO2 SLP147 T01060100 58013
KTRL 240753Z AUTO 31003KT 3/4SM BR VV003 11/11 A2999 RMK AO2 SLP153 T01110106
KTRL 240653Z AUTO 31004KT 3/4SM BR OVC002 11/11 A3000 RMK AO2 SLP156 T01110106
KTRL 240645Z AUTO 32004KT 1 3/4SM BR OVC002 12/11 A3000 RMK AO2 T01170106
KTRL 240553Z AUTO 31004KT 4SM BR OVC003 12/11 A3001 RMK AO2 SLP160 60000 T01170111 10139 20117 401390056 56011
KTRL 240548Z AUTO 29003KT 5SM BR OVC003 12/11 A3001 RMK AO2
KTRL 240530Z AUTO 29006KT 7SM OVC004 12/12 A3002 RMK AO2 T01220117
KTRL 240520Z AUTO 32003KT 6SM BR OVC005 12/12 A3001 RMK AO2 T01220117
KTRL 240512Z AUTO 30005KT 2SM BR OVC005 12/12 A3001 RMK AO2 T01220117
KTRL 240453Z AUTO 00000KT 3/4SM BR OVC005 12/12 A3002 RMK AO2 RAE09 SLP164 P0000 T01220117
KTRL 240440Z AUTO 00000KT 3/4SM BR OVC005 12/12 A3003 RMK AO2 RAE09 P0000 T01220117
KTRL 240424Z AUTO 00000KT 1 1/2SM BR OVC003 12/12 A3003 RMK AO2 RAE09 P0000 T01220117
KTRL 240353Z AUTO 00000KT 1/2SM -RA FG VV002 13/12 A3004 RMK AO2 RAB23 SLP171 P0000 T01280122
KTRL 240253Z AUTO 00000KT 1/2SM FG VV002 13/12 A3004 RMK AO2 SLP170 T01330122 55003
KTRL 240153Z AUTO 00000KT 3/4SM BR OVC002 14/13 A3003 RMK AO2 SLP168 T01390133
KTRL 240146Z AUTO 27004KT 1SM BR OVC002 14/13 A3003 RMK AO2 T01390133
KTRL 240133Z AUTO 00000KT 2SM BR OVC002 14/13 A3003 RMK AO2 T01390133
KTRL 240117Z AUTO 13004KT 1SM BR OVC002 14/13 A3003 RMK AO2 T01390133
KTRL 240053Z AUTO 13005KT 1/2SM FG VV003 13/13 A3003 RMK AO2 SLP167 T01330128
KTRL 232353Z AUTO 12003KT 1/2SM FG VV003 13/13 A3005 RMK AO2 SLP173 60000 T01330128 10133 20083 58006
KTRL 232253Z AUTO 00000KT 3/4SM BR OVC003 13/12 A3007 RMK AO2 SLP180 T01280122
KTRL 232250Z AUTO 00000KT 3/4SM BR OVC003 13/12 A3007 RMK AO2
KTRL 232228Z AUTO 13003KT 1 1/2SM BR OVC003 13/12 A3007 RMK AO2 T01280117
KTRL 232153Z AUTO 13005KT 2 1/2SM BR OVC003 13/12 A3007 RMK AO2 SLP181 T01280117
KTRL 232148Z AUTO 13006KT 2 1/2SM BR OVC003 13/12 A3007 RMK AO2